Time;durP1;ratioP1;P1;durP2;ratioP2;P2;SDS_P1;SDS_P2;PMS_P1;PMS_P2;Temp;Humidity;BMP_temperature;BMP_pressure;BME280_temperature;BME280_humidity;BME280_pressure;Samples;Min_cycle;Max_cycle;Signal;HPM_P1;HPM_P2
2022/10/18 00:00:58;;;;;;;12.65;8.88;;;16.00;99.90;;;;;;5114474;28;20184;-54
2022/10/18 00:03:23;;;;;;;12.25;8.25;;;16.00;99.90;;;;;;5113627;28;20212;-54
2022/10/18 00:05:49;;;;;;;14.82;9.10;;;15.90;99.90;;;;;;5114432;28;20169;-54
2022/10/18 00:08:16;;;;;;;10.43;8.13;;;15.90;99.90;;;;;;5114080;28;20194;-54
2022/10/18 00:10:42;;;;;;;13.63;9.15;;;15.90;99.90;;;;;;5113936;28;20165;-53
2022/10/18 00:13:07;;;;;;;11.00;8.48;;;15.80;99.90;;;;;;5113952;28;20171;-54
2022/10/18 00:15:33;;;;;;;12.43;8.43;;;15.80;99.90;;;;;;5113903;28;20218;-55
2022/10/18 00:17:59;;;;;;;12.43;8.50;;;15.90;99.90;;;;;;5113836;28;20175;-55
2022/10/18 00:20:25;;;;;;;12.50;9.50;;;15.80;99.90;;;;;;5113743;28;20165;-55
2022/10/18 00:22:51;;;;;;;15.98;9.30;;;15.80;99.90;;;;;;5113780;28;20208;-54
2022/10/18 00:25:16;;;;;;;14.43;9.60;;;15.80;99.90;;;;;;5114062;28;20707;-54
2022/10/18 00:27:42;;;;;;;14.30;10.23;;;15.80;99.90;;;;;;5113712;28;20198;-54
2022/10/18 00:30:08;;;;;;;17.65;11.30;;;15.80;99.90;;;;;;5113541;28;20165;-54
2022/10/18 00:32:41;;;;;;;21.90;12.13;;;15.90;99.90;;;;;;5113575;28;20160;-54
2022/10/18 00:35:07;;;;;;;18.45;11.18;;;15.80;99.90;;;;;;5095290;28;20300;-54
2022/10/18 00:37:34;;;;;;;15.55;11.35;;;15.80;99.90;;;;;;5113430;28;20654;-54
2022/10/18 00:40:00;;;;;;;16.55;11.30;;;15.90;99.90;;;;;;5113458;28;20165;-54
2022/10/18 00:42:34;;;;;;;17.05;11.32;;;15.90;99.90;;;;;;5113300;28;20659;-54
2022/10/18 00:45:20;;;;;;;18.50;11.02;;;15.90;99.90;;;;;;5113374;28;20221;-54
2022/10/18 00:47:55;;;;;;;19.17;12.18;;;15.90;99.90;;;;;;5113638;28;20200;-54
2022/10/18 00:50:21;;;;;;;18.55;11.25;;;15.90;99.90;;;;;;5113471;28;20179;-54
2022/10/18 00:52:57;;;;;;;15.02;10.07;;;15.90;99.90;;;;;;5113803;28;20168;-54
2022/10/18 00:55:24;;;;;;;13.48;10.90;;;15.80;99.90;;;;;;5113175;28;20176;-54
2022/10/18 00:57:50;;;;;;;15.07;10.75;;;15.90;99.90;;;;;;5112760;28;20268;-53
2022/10/18 01:00:17;;;;;;;14.73;10.35;;;15.90;99.90;;;;;;5113398;28;20177;-54
2022/10/18 01:02:44;;;;;;;20.70;11.65;;;15.80;99.90;;;;;;5112876;28;20535;-54
2022/10/18 01:05:12;;;;;;;20.33;11.15;;;15.80;99.90;;;;;;5112871;28;20164;-53
2022/10/18 01:08:00;;;;;;;20.30;11.32;;;15.90;99.90;;;;;;5112869;28;20172;-54
2022/10/18 01:10:31;;;;;;;15.70;11.60;;;15.90;99.90;;;;;;5112905;28;20175;-54
2022/10/18 01:13:30;;;;;;;16.88;11.10;;;15.90;99.90;;;;;;5113098;28;20215;-54
2022/10/18 01:16:12;;;;;;;18.35;11.73;;;15.80;99.90;;;;;;5112745;28;20164;-54
2022/10/18 01:19:05;;;;;;;19.35;10.30;;;15.90;99.90;;;;;;5112968;28;20191;-54
2022/10/18 01:21:41;;;;;;;18.58;12.05;;;15.90;99.90;;;;;;5111777;28;20208;-54
2022/10/18 01:24:27;;;;;;;18.15;11.10;;;15.90;99.90;;;;;;5112581;28;20164;-54
2022/10/18 01:27:22;;;;;;;16.02;11.60;;;16.00;99.90;;;;;;5112685;28;20164;-54
2022/10/18 01:30:25;;;;;;;19.05;11.10;;;15.80;99.90;;;;;;5112824;28;20221;-54
2022/10/18 01:32:56;;;;;;;15.02;11.15;;;15.90;99.90;;;;;;5112514;28;20168;-54
2022/10/18 01:35:28;;;;;;;19.58;12.48;;;15.90;99.90;;;;;;5112389;28;20160;-54
2022/10/18 01:37:58;;;;;;;17.90;10.98;;;15.90;99.90;;;;;;5112377;28;20198;-54
2022/10/18 01:40:24;;;;;;;15.40;11.02;;;15.90;99.90;;;;;;5112527;28;20168;-54
2022/10/18 01:42:50;;;;;;;16.95;11.55;;;15.90;99.90;;;;;;5112649;28;20204;-54
2022/10/18 01:45:17;;;;;;;16.00;11.38;;;15.90;99.90;;;;;;5112712;28;20157;-54
2022/10/18 01:47:45;;;;;;;15.73;11.75;;;15.90;99.90;;;;;;5112314;28;20238;-54
2022/10/18 01:50:11;;;;;;;20.67;12.32;;;15.90;99.90;;;;;;5112251;28;20172;-54
2022/10/18 01:52:48;;;;;;;16.67;11.98;;;15.80;99.90;;;;;;5112242;28;20168;-54
2022/10/18 01:55:14;;;;;;;14.77;11.05;;;15.90;99.90;;;;;;5112422;28;20179;-54
2022/10/18 01:57:47;;;;;;;16.45;10.98;;;15.90;99.90;;;;;;5112065;28;20672;-54
2022/10/18 02:00:22;;;;;;;16.02;12.05;;;15.80;99.90;;;;;;5112153;28;20161;-54
2022/10/18 02:02:55;;;;;;;18.90;12.40;;;15.80;99.90;;;;;;5112649;28;20225;-54
2022/10/18 02:05:35;;;;;;;17.98;13.15;;;15.80;99.90;;;;;;5112147;28;20685;-54
2022/10/18 02:08:16;;;;;;;21.35;13.10;;;15.80;99.90;;;;;;5112176;28;20177;-54
2022/10/18 02:10:49;;;;;;;17.65;12.82;;;15.80;99.90;;;;;;5115558;28;20218;-54
2022/10/18 02:13:19;;;;;;;26.17;15.52;;;15.90;99.90;;;;;;5116842;28;20168;-55
2022/10/18 02:15:48;;;;;;;27.40;14.63;;;15.90;99.90;;;;;;5116624;28;20248;-54
2022/10/18 02:18:28;;;;;;;30.33;13.93;;;15.90;99.90;;;;;;5116170;28;20165;-54
2022/10/18 02:20:54;;;;;;;18.33;13.00;;;15.80;99.90;;;;;;5116160;28;20658;-54
2022/10/18 02:23:23;;;;;;;21.58;14.70;;;15.80;99.90;;;;;;5115970;28;20680;-54
2022/10/18 02:25:49;;;;;;;28.20;13.25;;;15.80;99.90;;;;;;5116701;28;20508;-54
2022/10/18 02:28:15;;;;;;;22.17;13.98;;;15.90;99.90;;;;;;5116437;28;20215;-54
2022/10/18 02:30:56;;;;;;;21.02;13.23;;;15.90;99.90;;;;;;5115976;28;20165;-54
2022/10/18 02:33:36;;;;;;;19.77;12.55;;;15.80;99.90;;;;;;5115986;28;20198;-54
2022/10/18 02:36:11;;;;;;;19.58;12.32;;;15.90;99.90;;;;;;5115837;28;20782;-54
2022/10/18 02:38:39;;;;;;;21.38;13.68;;;15.80;99.90;;;;;;5115779;28;20199;-54
2022/10/18 02:41:05;;;;;;;20.85;13.75;;;15.80;99.90;;;;;;5115952;28;20610;-54
2022/10/18 02:43:31;;;;;;;21.85;13.20;;;15.70;99.90;;;;;;5115630;28;20200;-54
2022/10/18 02:45:56;;;;;;;19.85;12.40;;;15.70;99.90;;;;;;5115934;28;20165;-54
2022/10/18 02:48:22;;;;;;;19.77;12.48;;;15.80;99.90;;;;;;5115558;28;20243;-54
2022/10/18 02:50:47;;;;;;;20.30;12.88;;;15.70;99.90;;;;;;5115885;28;20712;-54
2022/10/18 02:53:13;;;;;;;19.77;13.77;;;15.80;99.90;;;;;;5115738;28;20657;-54
2022/10/18 02:55:38;;;;;;;16.95;12.15;;;15.90;99.90;;;;;;5115419;28;20195;-54
2022/10/18 02:58:04;;;;;;;20.67;12.77;;;15.90;99.90;;;;;;5115304;28;20576;-54
2022/10/18 03:00:29;;;;;;;19.13;13.52;;;15.80;99.90;;;;;;5115542;28;20161;-53
2022/10/18 03:02:55;;;;;;;19.77;12.85;;;15.80;99.90;;;;;;5115247;28;20287;-54
2022/10/18 03:05:20;;;;;;;20.95;13.93;;;15.80;99.90;;;;;;5115272;28;20227;-54
2022/10/18 03:07:46;;;;;;;20.67;13.50;;;15.70;99.90;;;;;;5115718;28;20173;-54
2022/10/18 03:10:12;;;;;;;21.00;14.55;;;15.70;99.90;;;;;;5115225;28;20171;-54
2022/10/18 03:12:37;;;;;;;22.27;14.30;;;15.70;99.90;;;;;;5115169;28;20640;-55
2022/10/18 03:15:03;;;;;;;23.20;15.07;;;15.80;99.90;;;;;;5115176;28;20528;-54
2022/10/18 03:17:29;;;;;;;21.20;14.48;;;15.70;99.90;;;;;;5115334;28;20631;-54
2022/10/18 03:19:54;;;;;;;25.55;16.33;;;15.80;99.90;;;;;;5114413;28;20240;-54
2022/10/18 03:22:20;;;;;;;23.85;14.85;;;15.90;99.90;;;;;;5114889;28;20420;-55
2022/10/18 03:24:45;;;;;;;23.80;14.98;;;15.80;99.90;;;;;;5115462;28;20259;-54
2022/10/18 03:27:11;;;;;;;24.27;16.05;;;15.70;99.90;;;;;;5114757;28;20651;-56
2022/10/18 03:29:36;;;;;;;22.90;15.27;;;15.80;99.90;;;;;;5115012;28;20164;-54
2022/10/18 03:32:02;;;;;;;23.17;14.73;;;15.80;99.90;;;;;;5114701;28;20632;-54
2022/10/18 03:34:27;;;;;;;22.42;14.00;;;15.80;99.90;;;;;;5114585;28;20161;-54
2022/10/18 03:36:53;;;;;;;22.35;15.02;;;15.70;99.90;;;;;;5114398;28;20157;-54
2022/10/18 03:39:19;;;;;;;27.88;16.90;;;15.80;99.90;;;;;;5115241;28;20204;-54
2022/10/18 03:41:45;;;;;;;42.67;24.17;;;15.70;99.90;;;;;;5114883;28;20273;-54
2022/10/18 03:44:10;;;;;;;89.07;43.03;;;15.80;99.90;;;;;;5114555;28;20265;-53
2022/10/18 03:46:36;;;;;;;59.80;32.92;;;15.80;99.90;;;;;;5114507;28;20160;-53
2022/10/18 03:49:02;;;;;;;49.50;27.20;;;15.80;99.90;;;;;;5114500;28;20165;-53
2022/10/18 03:51:27;;;;;;;35.60;21.20;;;15.80;99.90;;;;;;5114327;28;20175;-54
2022/10/18 03:53:53;;;;;;;25.45;16.67;;;15.80;99.90;;;;;;5114456;28;20173;-54
2022/10/18 03:56:18;;;;;;;19.95;14.27;;;15.80;99.90;;;;;;5114770;28;20169;-53
2022/10/18 03:58:44;;;;;;;21.67;14.50;;;15.70;99.90;;;;;;5114093;28;20254;-54
2022/10/18 04:01:09;;;;;;;20.90;14.18;;;15.80;99.90;;;;;;5114117;28;20192;-54
2022/10/18 04:03:35;;;;;;;24.05;14.32;;;15.70;99.90;;;;;;5114092;28;20173;-54
2022/10/18 04:06:02;;;;;;;20.67;14.90;;;15.70;99.90;;;;;;5114104;28;20169;-54
2022/10/18 04:08:28;;;;;;;20.33;13.25;;;15.80;99.90;;;;;;5114151;28;20631;-54
2022/10/18 04:10:53;;;;;;;22.20;14.35;;;15.70;99.90;;;;;;5114014;28;20283;-54
2022/10/18 04:13:19;;;;;;;21.25;14.35;;;15.70;99.90;;;;;;5114306;28;20512;-54
2022/10/18 04:15:45;;;;;;;19.52;13.07;;;15.80;99.90;;;;;;5114264;28;20181;-54
2022/10/18 04:18:10;;;;;;;20.65;13.90;;;15.80;99.90;;;;;;5113910;28;20245;-55
2022/10/18 04:20:36;;;;;;;21.85;13.77;;;15.70;99.90;;;;;;5113867;28;20176;-55
2022/10/18 04:23:01;;;;;;;22.00;14.50;;;15.80;99.90;;;;;;5113719;28;20211;-54
2022/10/18 04:25:28;;;;;;;21.83;14.00;;;15.80;99.90;;;;;;5113699;28;20168;-55
2022/10/18 04:27:54;;;;;;;24.65;13.93;;;15.80;99.90;;;;;;5113950;28;20234;-55
2022/10/18 04:30:19;;;;;;;21.40;13.35;;;15.70;99.90;;;;;;5113592;28;20173;-54
2022/10/18 04:32:45;;;;;;;22.00;13.65;;;15.70;99.90;;;;;;5112663;28;20171;-54
2022/10/18 04:35:10;;;;;;;20.20;13.48;;;15.70;99.90;;;;;;5113329;28;20524;-55
2022/10/18 04:37:36;;;;;;;20.33;12.60;;;15.70;99.90;;;;;;5113504;28;20238;-54
2022/10/18 04:40:03;;;;;;;22.35;14.45;;;15.70;99.90;;;;;;5113473;28;20249;-55
2022/10/18 04:42:28;;;;;;;20.20;13.23;;;15.80;99.90;;;;;;5113336;28;20256;-54
2022/10/18 04:44:54;;;;;;;23.55;14.80;;;15.70;99.90;;;;;;5113384;28;20168;-54
2022/10/18 04:47:19;;;;;;;21.50;14.07;;;15.60;99.90;;;;;;5113443;28;20209;-54
2022/10/18 04:49:45;;;;;;;24.25;15.50;;;15.70;99.90;;;;;;5113587;28;20570;-55
2022/10/18 04:52:10;;;;;;;24.15;14.15;;;15.70;99.90;;;;;;5113239;28;20173;-55
2022/10/18 04:54:36;;;;;;;21.55;15.27;;;15.80;99.90;;;;;;5112995;28;20153;-54
2022/10/18 04:57:02;;;;;;;19.58;13.63;;;15.70;99.90;;;;;;5112886;28;20242;-54
2022/10/18 04:59:28;;;;;;;23.60;14.57;;;15.80;99.90;;;;;;5113042;28;20164;-54
2022/10/18 05:01:54;;;;;;;24.15;14.73;;;15.80;99.90;;;;;;5112742;28;20287;-53
2022/10/18 05:04:19;;;;;;;26.00;15.27;;;15.70;99.90;;;;;;5112975;28;20245;-54
2022/10/18 05:06:45;;;;;;;25.25;15.23;;;15.70;99.90;;;;;;5113450;28;20176;-54
2022/10/18 05:09:11;;;;;;;24.05;14.75;;;15.70;99.90;;;;;;5113064;28;20169;-54
2022/10/18 05:11:37;;;;;;;29.90;16.52;;;15.70;99.90;;;;;;5113121;28;20174;-54
2022/10/18 05:14:02;;;;;;;28.30;16.30;;;15.70;99.90;;;;;;5112750;28;20207;-54
2022/10/18 05:16:28;;;;;;;29.23;15.70;;;15.80;99.90;;;;;;5113111;28;20168;-54
2022/10/18 05:18:54;;;;;;;27.48;16.25;;;15.80;99.90;;;;;;5112916;28;20160;-54
2022/10/18 05:21:19;;;;;;;28.88;15.35;;;15.80;99.90;;;;;;5112646;28;20172;-54
2022/10/18 05:23:45;;;;;;;29.10;16.85;;;15.80;99.90;;;;;;5094681;28;20180;-53
2022/10/18 05:26:10;;;;;;;29.20;17.15;;;15.80;99.90;;;;;;5112608;28;20179;-53
2022/10/18 05:28:36;;;;;;;35.60;18.73;;;15.70;99.90;;;;;;5112587;28;20215;-53
2022/10/18 05:31:06;;;;;;;31.63;17.63;;;15.70;99.90;;;;;;5094317;28;20200;-53
2022/10/18 05:33:32;;;;;;;41.53;19.98;;;15.80;99.90;;;;;;5112509;28;20152;-53
2022/10/18 05:35:58;;;;;;;35.78;18.23;;;15.90;99.90;;;;;;5112541;28;20172;-53
2022/10/18 05:38:24;;;;;;;33.80;19.33;;;15.80;99.90;;;;;;5112416;28;20164;-53
2022/10/18 05:40:49;;;;;;;37.13;18.60;;;15.70;99.90;;;;;;5112362;28;20628;-54
2022/10/18 05:43:16;;;;;;;35.58;18.08;;;15.70;99.90;;;;;;5094073;28;20647;-53
2022/10/18 05:45:51;;;;;;;36.25;17.95;;;15.90;99.90;;;;;;5112523;28;20205;-53
2022/10/18 05:48:16;;;;;;;38.35;17.60;;;15.80;99.90;;;;;;5112787;28;20263;-53
2022/10/18 05:50:43;;;;;;;32.63;17.85;;;15.80;99.90;;;;;;5112253;28;20302;-53
2022/10/18 05:53:09;;;;;;;36.00;17.75;;;15.90;99.90;;;;;;5112068;28;20153;-53
2022/10/18 05:55:34;;;;;;;31.05;17.77;;;15.90;99.90;;;;;;5112188;28;20305;-53
2022/10/18 05:58:00;;;;;;;39.83;19.58;;;15.80;99.90;;;;;;5112070;28;20244;-53
2022/10/18 06:00:26;;;;;;;35.28;19.00;;;15.90;99.90;;;;;;5112247;28;20245;-53
2022/10/18 06:02:51;;;;;;;38.92;20.98;;;15.80;99.90;;;;;;5112186;28;20211;-53
2022/10/18 06:05:17;;;;;;;40.88;20.92;;;15.90;99.90;;;;;;5112542;28;20161;-53
2022/10/18 06:07:42;;;;;;;40.40;21.15;;;15.80;99.90;;;;;;5112201;28;20243;-53
2022/10/18 06:10:09;;;;;;;40.38;20.27;;;15.90;99.90;;;;;;5112386;28;20169;-53
2022/10/18 06:12:34;;;;;;;39.67;21.77;;;15.90;99.90;;;;;;5111987;28;20169;-53
2022/10/18 06:15:00;;;;;;;35.47;19.60;;;15.80;99.90;;;;;;5111884;28;20206;-53
2022/10/18 06:17:25;;;;;;;41.97;20.65;;;15.90;99.90;;;;;;5112105;28;20182;-53
2022/10/18 06:19:51;;;;;;;43.45;21.27;;;15.80;99.90;;;;;;5111957;28;20624;-53
2022/10/18 06:22:16;;;;;;;36.72;20.58;;;15.90;99.90;;;;;;5112174;28;20567;-53
2022/10/18 06:24:42;;;;;;;33.17;18.58;;;15.90;99.90;;;;;;5111813;28;20587;-53
2022/10/18 06:27:08;;;;;;;34.83;18.67;;;15.80;99.90;;;;;;5111877;28;20616;-52
2022/10/18 06:29:37;;;;;;;41.15;20.40;;;15.80;99.90;;;;;;5112143;28;20623;-53
2022/10/18 06:32:05;;;;;;;39.08;19.77;;;15.80;99.90;;;;;;5111862;28;20177;-53
2022/10/18 06:34:30;;;;;;;39.60;19.42;;;15.80;99.90;;;;;;5111841;28;20247;-53
2022/10/18 06:36:56;;;;;;;37.95;18.63;;;15.90;99.90;;;;;;5111845;28;20257;-53
2022/10/18 06:39:22;;;;;;;39.50;19.02;;;15.90;99.90;;;;;;5111830;28;20174;-53
2022/10/18 06:41:47;;;;;;;45.03;21.45;;;15.80;99.90;;;;;;5111883;28;20272;-53
2022/10/18 06:44:13;;;;;;;44.90;19.80;;;15.80;99.90;;;;;;5111722;28;20175;-53
2022/10/18 06:46:40;;;;;;;43.72;21.23;;;15.90;99.90;;;;;;5111939;28;20196;-53
2022/10/18 06:49:06;;;;;;;38.78;19.00;;;16.00;99.90;;;;;;5111717;28;20177;-53
2022/10/18 06:51:32;;;;;;;32.38;18.55;;;15.80;99.90;;;;;;5111590;28;20567;-53
2022/10/18 06:53:57;;;;;;;35.72;19.25;;;15.90;99.90;;;;;;5111666;28;20173;-53
2022/10/18 06:56:23;;;;;;;35.67;19.83;;;15.90;99.90;;;;;;5114148;28;20642;-53
2022/10/18 06:58:48;;;;;;;36.60;19.88;;;16.00;99.90;;;;;;5115145;28;20649;-53
2022/10/18 07:01:16;;;;;;;40.58;20.73;;;15.90;99.90;;;;;;5115621;28;20210;-53
2022/10/18 07:03:42;;;;;;;39.83;21.58;;;15.80;99.90;;;;;;5115266;28;20176;-53
2022/10/18 07:06:09;;;;;;;33.53;18.95;;;15.90;99.90;;;;;;5115337;28;20198;-53
2022/10/18 07:08:36;;;;;;;33.58;18.73;;;15.90;99.90;;;;;;5115216;28;20161;-53
2022/10/18 07:11:02;;;;;;;40.42;21.25;;;15.90;99.90;;;;;;5115075;28;20209;-53
2022/10/18 07:13:29;;;;;;;37.95;20.25;;;15.90;99.90;;;;;;5115075;28;20165;-53
2022/10/18 07:16:11;;;;;;;33.60;19.33;;;15.90;99.90;;;;;;5115197;28;20168;-53
2022/10/18 07:18:39;;;;;;;39.05;20.20;;;15.90;99.90;;;;;;5115303;28;20247;-54
2022/10/18 07:21:07;;;;;;;41.78;20.98;;;15.90;99.90;;;;;;5096596;28;20529;-53
2022/10/18 07:23:37;;;;;;;42.90;20.85;;;15.80;99.90;;;;;;5115039;28;20204;-53
2022/10/18 07:26:14;;;;;;;40.80;21.75;;;15.80;99.90;;;;;;5114920;28;20165;-53
2022/10/18 07:28:40;;;;;;;42.42;22.50;;;15.80;99.90;;;;;;5114844;28;20165;-53
2022/10/18 07:31:07;;;;;;;44.00;23.58;;;15.80;99.90;;;;;;5114880;28;20176;-53
2022/10/18 07:33:34;;;;;;;49.00;23.83;;;15.80;99.90;;;;;;5114675;28;20226;-53
2022/10/18 07:36:02;;;;;;;44.60;23.48;;;15.90;99.90;;;;;;5114994;28;20172;-53
2022/10/18 07:38:27;;;;;;;48.33;24.88;;;15.80;99.90;;;;;;5114933;28;20161;-53
2022/10/18 07:40:58;;;;;;;45.45;23.20;;;15.90;99.90;;;;;;5114564;28;20168;-53
2022/10/18 07:43:24;;;;;;;43.65;24.13;;;16.00;99.90;;;;;;5114371;28;20257;-54
2022/10/18 07:45:57;;;;;;;51.35;23.67;;;15.80;99.90;;;;;;5114421;28;20157;-54
2022/10/18 07:48:23;;;;;;;46.45;23.42;;;15.90;99.90;;;;;;5114587;28;20177;-53
2022/10/18 07:50:49;;;;;;;44.15;24.02;;;15.90;99.90;;;;;;5096568;28;20169;-53
2022/10/18 07:53:15;;;;;;;46.85;22.80;;;15.90;99.90;;;;;;5114776;28;20187;-53
2022/10/18 07:55:40;;;;;;;44.92;23.33;;;15.90;99.90;;;;;;5114186;28;20165;-53
2022/10/18 07:58:06;;;;;;;45.33;23.80;;;15.90;99.90;;;;;;5114122;28;20231;-53
2022/10/18 08:00:31;;;;;;;44.35;23.98;;;15.90;99.90;;;;;;5114425;28;20168;-53
2022/10/18 08:02:58;;;;;;;45.45;23.05;;;16.00;99.90;;;;;;5114074;28;20747;-53
2022/10/18 08:05:25;;;;;;;40.38;23.60;;;15.90;99.90;;;;;;5113914;28;20498;-53
2022/10/18 08:07:52;;;;;;;45.53;25.05;;;16.00;99.90;;;;;;5113948;28;20711;-53
2022/10/18 08:10:18;;;;;;;46.28;27.55;;;16.10;99.90;;;;;;5114315;28;20169;-53
2022/10/18 08:12:44;;;;;;;37.63;23.58;;;16.10;99.90;;;;;;5114172;28;20187;-53
2022/10/18 08:15:10;;;;;;;42.42;23.90;;;16.10;99.90;;;;;;5113878;28;20687;-53
2022/10/18 08:17:35;;;;;;;40.00;24.33;;;16.20;99.90;;;;;;5113893;28;20173;-53
2022/10/18 08:20:01;;;;;;;39.25;24.08;;;16.20;99.90;;;;;;5113838;28;20192;-53
2022/10/18 08:22:26;;;;;;;42.70;25.25;;;16.30;99.90;;;;;;5113587;28;20240;-52
2022/10/18 08:24:52;;;;;;;48.42;25.38;;;16.20;99.90;;;;;;5113620;28;20173;-53
2022/10/18 08:27:17;;;;;;;45.05;25.08;;;16.20;99.90;;;;;;5113925;28;20180;-53
2022/10/18 08:29:43;;;;;;;44.40;25.98;;;16.30;99.90;;;;;;5113916;28;20683;-53
2022/10/18 08:32:08;;;;;;;42.85;25.27;;;16.30;99.90;;;;;;5113829;28;20196;-53
2022/10/18 08:34:34;;;;;;;47.55;24.80;;;16.30;99.90;;;;;;5113738;28;20171;-53
2022/10/18 08:37:00;;;;;;;43.85;26.80;;;16.30;99.90;;;;;;5113513;28;20168;-53
2022/10/18 08:39:26;;;;;;;45.75;26.58;;;16.30;99.90;;;;;;5113488;28;20169;-53
2022/10/18 08:42:12;;;;;;;51.88;28.58;;;16.30;99.90;;;;;;5113537;28;20200;-53
2022/10/18 08:44:45;;;;;;;54.05;27.70;;;16.20;99.90;;;;;;5095157;28;20671;-53
2022/10/18 08:47:21;;;;;;;54.47;29.15;;;16.20;99.90;;;;;;5113582;28;20255;-53
2022/10/18 08:49:51;;;;;;;47.90;27.83;;;16.30;99.90;;;;;;5113570;28;20175;-53
2022/10/18 08:52:27;;;;;;;57.72;29.27;;;16.40;99.90;;;;;;5113534;28;20157;-53
2022/10/18 08:55:35;;;;;;;53.25;27.90;;;16.40;99.90;;;;;;5113128;28;20190;-53
2022/10/18 08:58:02;;;;;;;53.65;29.33;;;16.20;99.90;;;;;;5102670;28;20224;-52
2022/10/18 09:00:33;;;;;;;57.35;30.58;;;16.40;99.90;;;;;;5113274;28;20173;-53
2022/10/18 09:03:06;;;;;;;63.38;31.33;;;16.30;99.90;;;;;;5113110;28;20231;-52
2022/10/18 09:05:55;;;;;;;64.47;31.23;;;16.40;99.90;;;;;;5094807;28;20197;-52
2022/10/18 09:08:29;;;;;;;61.15;32.42;;;16.40;99.90;;;;;;5112795;28;20207;-53
2022/10/18 09:11:00;;;;;;;65.57;33.42;;;16.40;99.90;;;;;;5112674;28;20171;-53
2022/10/18 09:13:26;;;;;;;66.78;33.22;;;16.50;99.90;;;;;;5094693;28;20495;-52
2022/10/18 09:16:01;;;;;;;70.25;34.90;;;16.60;99.90;;;;;;5112694;28;20179;-53
2022/10/18 09:18:48;;;;;;;64.63;35.40;;;16.50;99.90;;;;;;5112260;28;20708;-53
2022/10/18 09:21:19;;;;;;;59.78;32.35;;;16.70;99.90;;;;;;5112952;28;20165;-53
2022/10/18 09:24:01;;;;;;;66.90;34.90;;;16.60;99.90;;;;;;5113143;28;20223;-53
2022/10/18 09:26:47;;;;;;;58.88;31.45;;;16.70;99.90;;;;;;5112747;28;20163;-53
2022/10/18 09:29:41;;;;;;;64.18;34.45;;;16.60;99.90;;;;;;5112873;28;20171;-52
2022/10/18 09:32:23;;;;;;;58.63;32.88;;;16.70;99.90;;;;;;5112421;28;20165;-53
2022/10/18 09:34:49;;;;;;;69.13;33.85;;;16.70;99.90;;;;;;5112526;28;20715;-53
2022/10/18 09:37:18;;;;;;;77.43;39.47;;;16.70;99.90;;;;;;5112946;28;20180;-52
2022/10/18 09:39:45;;;;;;;60.10;34.58;;;16.80;99.90;;;;;;5112650;28;20170;-53
2022/10/18 09:42:25;;;;;;;64.15;33.53;;;16.90;99.90;;;;;;5112325;28;20671;-53
2022/10/18 09:45:02;;;;;;;77.25;35.40;;;16.80;99.90;;;;;;5078030;28;20545;-53
2022/10/18 09:47:40;;;;;;;79.63;38.45;;;16.70;99.90;;;;;;5112279;28;20184;-53
2022/10/18 09:50:28;;;;;;;73.22;36.97;;;16.80;99.90;;;;;;5094137;28;20630;-53
2022/10/18 09:53:13;;;;;;;68.47;35.92;;;16.90;99.90;;;;;;5112109;28;20192;-52
2022/10/18 09:56:01;;;;;;;70.13;37.38;;;16.90;99.90;;;;;;5112162;28;20165;-53
2022/10/18 09:58:51;;;;;;;69.75;35.50;;;17.00;99.90;;;;;;5111899;28;20749;-53
2022/10/18 10:01:25;;;;;;;72.20;36.95;;;16.90;99.90;;;;;;5112516;28;20169;-54
2022/10/18 10:03:51;;;;;;;73.75;37.58;;;16.80;99.90;;;;;;5112121;28;20180;-53
2022/10/18 10:06:30;;;;;;;76.05;39.67;;;16.90;99.90;;;;;;5112543;28;20169;-53
2022/10/18 10:09:12;;;;;;;74.68;38.72;;;16.90;99.90;;;;;;5111965;28;20213;-53
2022/10/18 10:11:44;;;;;;;72.28;38.90;;;17.00;99.90;;;;;;5112055;28;20184;-53
2022/10/18 10:14:26;;;;;;;79.18;39.88;;;17.00;99.90;;;;;;5094201;28;20176;-53
2022/10/18 10:16:57;;;;;;;83.93;40.88;;;17.10;99.90;;;;;;5112355;28;20172;-53
2022/10/18 10:19:33;;;;;;;87.20;43.20;;;17.10;99.90;;;;;;5112018;28;20248;-53
2022/10/18 10:22:11;;;;;;;84.30;43.75;;;16.90;99.90;;;;;;5111941;28;20220;-53
2022/10/18 10:24:52;;;;;;;88.05;44.42;;;17.00;99.90;;;;;;5112015;28;20650;-54
2022/10/18 10:27:20;;;;;;;94.40;45.58;;;17.00;99.90;;;;;;5111634;28;20171;-53
2022/10/18 10:29:46;;;;;;;89.70;45.40;;;17.10;99.90;;;;;;5112335;28;20172;-54
2022/10/18 10:32:17;;;;;;;97.45;47.47;;;17.10;99.90;;;;;;5115807;28;20172;-53
2022/10/18 10:34:43;;;;;;;102.72;51.05;;;17.00;99.90;;;;;;5116295;28;20674;-53
2022/10/18 10:37:30;;;;;;;106.53;53.28;;;17.20;99.90;;;;;;5115884;28;20213;-53
2022/10/18 10:40:13;;;;;;;104.93;49.15;;;17.20;99.90;;;;;;5115812;28;20217;-53
2022/10/18 10:42:59;;;;;;;102.20;51.63;;;17.40;99.90;;;;;;5115648;28;20212;-53
2022/10/18 10:45:28;;;;;;;97.88;50.95;;;17.50;99.90;;;;;;5116031;28;20164;-53
2022/10/18 10:48:05;;;;;;;77.78;42.08;;;17.70;99.90;;;;;;5115540;28;20165;-52
2022/10/18 10:50:58;;;;;;;78.90;43.85;;;17.70;99.90;;;;;;5115581;28;20190;-53
2022/10/18 10:53:34;;;;;;;92.32;47.15;;;17.70;99.90;;;;;;5115555;28;20252;-53
2022/10/18 10:56:01;;;;;;;82.53;43.53;;;17.70;99.90;;;;;;5115726;28;20164;-53
2022/10/18 10:58:32;;;;;;;76.72;41.65;;;17.70;99.90;;;;;;5115354;28;20270;-53
2022/10/18 11:01:20;;;;;;;90.85;47.47;;;20.00;99.90;;;;;;5115340;28;20188;-53
2022/10/18 11:03:47;;;;;;;84.53;47.13;;;17.60;99.90;;;;;;5115604;28;20224;-53
2022/10/18 11:06:49;;;;;;;87.65;46.95;;;17.90;99.90;;;;;;5115596;28;20156;-53
2022/10/18 11:09:25;;;;;;;92.63;47.35;;;17.90;99.90;;;;;;5072726;28;20642;-53
2022/10/18 11:12:11;;;;;;;84.22;44.97;;;18.00;99.90;;;;;;5115186;28;20196;-53
2022/10/18 11:14:43;;;;;;;80.05;42.38;;;17.90;99.90;;;;;;5115059;28;20627;-54
2022/10/18 11:17:26;;;;;;;77.50;40.88;;;17.90;99.90;;;;;;5115084;28;20182;-54
2022/10/18 11:20:09;;;;;;;79.90;42.00;;;17.80;99.90;;;;;;5115263;28;20641;-53
2022/10/18 11:22:54;;;;;;;84.35;44.47;;;17.70;99.90;;;;;;5114787;28;20199;-53
2022/10/18 11:25:22;;;;;;;90.47;46.25;;;17.70;99.90;;;;;;5114877;28;20188;-54
2022/10/18 11:28:04;;;;;;;92.03;47.90;;;17.90;99.90;;;;;;5115119;28;20165;-53
2022/10/18 11:30:44;;;;;;;87.22;44.83;;;18.00;99.90;;;;;;5114826;28;20203;-53
2022/10/18 11:33:50;;;;;;;80.20;43.20;;;18.10;99.90;;;;;;5114742;28;20646;-54
2022/10/18 11:36:40;;;;;;;75.63;37.00;;;18.30;99.90;;;;;;5114955;28;20171;-53
2022/10/18 11:39:26;;;;;;;82.05;43.22;;;18.30;99.90;;;;;;5114616;28;20256;-54
2022/10/18 11:42:05;;;;;;;82.25;42.25;;;18.10;99.90;;;;;;5114050;28;20284;-53
2022/10/18 11:44:51;;;;;;;78.00;41.38;;;18.20;99.90;;;;;;5114565;28;20168;-53
2022/10/18 11:47:35;;;;;;;72.20;39.67;;;18.20;99.90;;;;;;5072982;28;20173;-53
2022/10/18 11:50:38;;;;;;;65.90;36.92;;;18.20;99.90;;;;;;5114682;28;20168;-53
2022/10/18 11:53:06;;;;;;;63.33;36.88;;;18.10;99.90;;;;;;5082960;28;20176;-53
2022/10/18 11:55:50;;;;;;;60.30;33.78;;;18.00;99.90;;;;;;5114245;28;20170;-53
2022/10/18 11:58:47;;;;;;;53.20;30.25;;;18.20;99.90;;;;;;5114320;28;20216;-53
2022/10/18 12:01:27;;;;;;;49.45;28.25;;;18.20;99.90;;;;;;5114608;28;20160;-53
2022/10/18 12:04:00;;;;;;;40.83;23.92;;;18.10;99.90;;;;;;5113961;28;20712;-53
2022/10/18 12:06:34;;;;;;;42.17;25.58;;;18.00;99.90;;;;;;5114101;28;20261;-53
2022/10/18 12:09:27;;;;;;;40.92;23.08;;;18.00;99.90;;;;;;5114353;28;20310;-53
2022/10/18 12:12:00;;;;;;;37.95;22.85;;;18.10;99.90;;;;;;5113400;28;20596;-53
2022/10/18 12:14:29;;;;;;;36.72;23.02;;;18.10;99.90;;;;;;5114140;28;20172;-54
2022/10/18 12:16:59;;;;;;;35.83;21.40;;;18.10;99.90;;;;;;5095630;28;20168;-54
2022/10/18 12:19:27;;;;;;;32.40;19.65;;;18.20;99.90;;;;;;5114056;28;20179;-53
2022/10/18 12:21:55;;;;;;;28.75;18.95;;;18.30;99.90;;;;;;5113607;28;20563;-53
2022/10/18 12:24:26;;;;;;;28.35;17.70;;;18.40;99.90;;;;;;5113812;28;20776;-54
2022/10/18 12:27:00;;;;;;;30.40;18.52;;;18.50;99.90;;;;;;5113673;28;20172;-53
2022/10/18 12:29:48;;;;;;;29.60;18.83;;;18.40;99.90;;;;;;5113808;28;20181;-54
2022/10/18 12:32:20;;;;;;;29.15;19.67;;;18.20;99.90;;;;;;5113770;28;20164;-53
2022/10/18 12:34:51;;;;;;;28.85;19.33;;;18.00;99.90;;;;;;5095610;28;20575;-53
2022/10/18 12:37:31;;;;;;;27.83;17.90;;;18.00;99.90;;;;;;5113659;28;20274;-53
2022/10/18 12:40:11;;;;;;;30.95;18.15;;;17.90;99.90;;;;;;5113659;28;20172;-53
2022/10/18 12:42:46;;;;;;;25.05;17.30;;;17.90;99.90;;;;;;5113317;28;20208;-53
2022/10/18 12:45:12;;;;;;;26.83;17.20;;;17.90;99.90;;;;;;5113706;28;20164;-53
2022/10/18 12:47:39;;;;;;;22.67;15.98;;;18.00;99.90;;;;;;5113271;28;20163;-53